Flight Track Log - Related Links

Times and Time Zones

All times are in EDT time to prevent confusion due to time zone crossing. See the FLG3702 flight status page for this flight to view local times or setup timezone preferences in your user account.

Time Position Orientation Groundspeed Altitude Reporting Facility
EDT Latitude Longitude Course Direction KTS MPH feet Rate Location/Type
Tue 04:34:21 PM 41.0500 -73.7667 270° West 207 238 3,500  Level New York TRACON
Tue 04:35:21 PM 41.1000 -73.8333 315° West 259 298 5,900 2,564 Climbing New York TRACON
Tue 04:36:18 PM 41.1283 -73.9086 297° West 298 343 8,500 2,765 Climbing New York Center
Tue 04:37:16 PM 41.1839 -74.0078 307° West 303 349 11,200 2,319 Climbing New York Center
Tue 04:38:17 PM 41.2358 -74.0903 310° West 321 369 13,100 1,820 Climbing New York Center
Tue 04:39:18 PM 41.3033 -74.2039 308° West 348 400 14,900 1,388 Climbing New York Center
Tue 04:40:18 PM 41.3392 -74.3247 292° West 370 426 15,900 850 Climbing New York Center
Tue 04:41:18 PM 41.3808 -74.4650 292° West 384 442 16,600 992 Climbing New York Center
Tue 04:42:19 PM 41.4181 -74.5997 290° West 389 448 17,900 1,261 Climbing New York Center
Tue 04:43:17 PM 41.4536 -74.7236 291° West 394 453 19,100 1,412 Climbing New York Center
Tue 04:44:18 PM 41.4928 -74.8589 291° West 394 453 20,700 1,450 Climbing New York Center
Tue 04:45:17 PM 41.5297 -74.9969 290° West 394 453 22,000 1,150 Climbing New York Center
Tue 04:46:18 PM 41.5703 -75.1381 291° West 394 453 23,000 984 Climbing New York Center
Tue 04:47:19 PM 41.6131 -75.2769 292° West 399 459 24,000 1,008 Climbing New York Center
Tue 04:48:17 PM 41.6553 -75.4211 291° West 404 465 25,000 857 Climbing New York Center
Tue 04:49:18 PM 41.6994 -75.5689 292° West 416 479 25,700 689 Climbing New York Center
Tue 04:50:19 PM 41.7433 -75.7192 291° West 422 486 26,400 694 Climbing New York Center
Tue 04:51:19 PM 41.7889 -75.8672 292° West 427 491 27,100 712 Climbing New York Center
Tue 04:52:17 PM 41.8342 -76.0239 291° West 440 506 27,800 454 Climbing New York Center
Tue 04:53:18 PM 41.8772 -76.1778 291° West 440 506 28,000 98 Climbing New York Center
Tue 04:54:19 PM 41.9219 -76.3375 291° West 446 513 28,000  Level New York Center
Tue 04:56:09 PM 42.0089 -76.6369 291° West 481 554 28,000  Level Cleveland Center
Tue 04:57:09 PM 42.0539 -76.7964 291° West 476 548 28,000  Level Cleveland Center
Tue 04:58:09 PM 42.1008 -76.9561 292° West 463 533 28,000  Level Cleveland Center
Tue 04:59:09 PM 42.1433 -77.1133 290° West 458 527 28,000  Level Cleveland Center
Tue 05:00:09 PM 42.1897 -77.2733 291° West 458 527 28,000  Level Cleveland Center
Tue 05:01:09 PM 42.2314 -77.4281 290° West 458 527 28,000  Level Cleveland Center
Tue 05:02:09 PM 42.2775 -77.5858 292° West 458 527 28,000  Level Cleveland Center
Tue 05:03:09 PM 42.3292 -77.7408 294° West 453 521 28,000  Level Cleveland Center
Tue 05:04:09 PM 42.3789 -77.8958 294° West 453 521 28,000  Level Cleveland Center
Tue 05:05:09 PM 42.4283 -78.0514 293° West 448 516 28,000  Level Cleveland Center
Tue 05:06:09 PM 42.4772 -78.2014 294° West 448 516 28,000  Level Cleveland Center
Tue 05:07:09 PM 42.5264 -78.3575 293° West 448 516 28,000  Level Cleveland Center
Tue 05:08:09 PM 42.5772 -78.5136 294° West 448 516 28,000  Level Cleveland Center
Tue 05:09:09 PM 42.6258 -78.6700 293° West 448 516 28,000  Level Cleveland Center
Tue 05:10:09 PM 42.6783 -78.8378 293° West 448 516 28,000  Level Cleveland Center
Tue 05:11:09 PM 42.7181 -78.9950 289° West 448 516 28,000  Level Cleveland Center
Tue 05:12:09 PM 42.7203 -79.1672 271° West 448 516 28,000  Level Cleveland Center
Tue 05:13:09 PM 42.7181 -79.3342 269° West 448 516 28,000  Level Cleveland Center
Tue 05:14:09 PM 42.7200 -79.5036 271° West 448 516 28,000  Level Cleveland Center
Tue 05:15:09 PM 42.7172 -79.6733 269° West 448 516 28,000  Level Cleveland Center
Tue 05:16:09 PM 42.7206 -79.8400 272° West 448 516 28,000  Level Cleveland Center
Tue 05:17:09 PM 42.7131 -80.0153 267° West 448 516 28,000  Level Cleveland Center
Tue 05:18:09 PM 42.7158 -80.1847 271° West 453 521 28,000  Level Cleveland Center
Tue 05:19:09 PM 42.7122 -80.3514 268° West 453 521 28,000  Level Cleveland Center
Tue 05:20:09 PM 42.7125 -80.5211 270° West 460 529 28,000 -100 Level Cleveland Center
Tue 05:21:09 PM 42.7103 -80.6906 269° West 460 529 27,800 -550 Descending Cleveland Center
Tue 05:22:09 PM 42.7058 -80.8375 268° West 455 524 26,900 -950 Descending Cleveland Center
Tue 05:23:09 PM 42.6928 -81.0069 264° West 455 524 25,900 -1,000 Descending Cleveland Center
Tue 05:24:09 PM 42.6756 -81.1622 261° West 440 506 24,900 -950 Descending Cleveland Center
Tue 05:25:09 PM 42.6578 -81.3258 262° West 431 496 24,000 -450 Descending Cleveland Center
Tue 05:26:09 PM 42.6381 -81.4806 260° West 423 487 24,000  Level Cleveland Center
Tue 05:27:09 PM 42.6181 -81.6383 260° West 429 494 24,000 -850 Level Cleveland Center
Tue 05:28:09 PM 42.5975 -81.8072 261° West 429 494 22,300 -1,950 Descending Cleveland Center
Tue 05:29:09 PM 42.5792 -81.9619 261° West 429 494 20,100 -2,200 Descending Cleveland Center
Tue 05:30:09 PM 42.5628 -82.1056 261° West 418 481 17,900 -2,150 Descending Cleveland Center
Tue 05:31:09 PM 42.5442 -82.2458 260° West 400 460 15,800 -2,148 Descending Cleveland Center
Tue 05:31:30 PM 42.5392 -82.2992 263° West 373 429 15,000 -2,172 Descending Cleveland Center
Tue 05:32:07 PM 42.5275 -82.3836 259° West 370 426 13,700 -2,154 Descending Cleveland Center
Tue 05:32:09 PM 42.5275 -82.3836 259° West 382 440 13,600 -1,574 Descending Cleveland Center
Tue 05:33:08 PM 42.5106 -82.5183 260° West 361 415 12,100 -1,500 Descending Cleveland Center
Tue 05:33:09 PM 42.5106 -82.5183 260° West 376 433 12,100 -98 Level Cleveland Center
Tue 05:34:09 PM 42.4750 -82.6439 249° West 368 423 12,000 -50 Descending Cleveland Center
Tue 05:35:09 PM 42.4269 -82.7689 243° Southwest 371 427 12,000  Level Cleveland Center
Tue 05:36:09 PM 42.3828 -82.8911 244° Southwest 371 427 12,000  Level Cleveland Center
Tue 05:37:12 PM 42.3383 -83.0242 246° West 358 412 12,000  Level Cleveland Center
Tue 05:38:09 PM 42.3008 -83.1267 244° Southwest 354 407 12,000 -51 Level Cleveland Center
Tue 05:39:09 PM 42.2450 -83.1889 220° Southwest 315 362 11,900 -1,650 Descending Cleveland Center
Tue 05:40:09 PM 42.1608 -83.2275 199° South 292 336 8,700 -2,650 Descending Cleveland Center
Tue 05:41:09 PM 42.0931 -83.2750 207° Southwest 283 326 6,600 -2,436 Descending Cleveland Center
Tue 05:42:22 PM 42.0494 -83.3517 233° Southwest 260 299 3,300 -1,688 Descending Cleveland Center
Tue 05:43:17 PM 42.0789 -83.4283 297° West 217 250 3,000 -327 Descending Cleveland Center

Login

Don't have an account? Register now (free) for customized features, flight alerts, and more!